Time;durP1;ratioP1;P1;durP2;ratioP2;P2;SDS_P1;SDS_P2;PMS_P1;PMS_P2;Temp;Humidity;BMP_temperature;BMP_pressure;BME280_temperature;BME280_humidity;BME280_pressure;Samples;Min_cycle;Max_cycle;Signal;HPM_P1;HPM_P2
2021/12/24 00:00:17;;;;;;;;;;;1.50;99.90;;;;;;5027871;28;19972;-85
2021/12/24 00:02:44;;;;;;;;;;;1.70;99.90;;;;;;5029358;28;19925;-85
2021/12/24 00:05:12;;;;;;;;;;;1.70;99.90;;;;;;5029817;28;20343;-85
2021/12/24 00:07:38;;;;;;;;;;;1.70;99.90;;;;;;5028518;28;19926;-85
2021/12/24 00:10:07;;;;;;;;;;;1.70;99.90;;;;;;5029020;28;20458;-85
2021/12/24 00:12:36;;;;;;;;;;;1.70;99.90;;;;;;5028680;28;19929;-84
2021/12/24 00:15:18;;;;;;;;;;;1.70;99.90;;;;;;5027055;28;20108;-85
2021/12/24 00:17:44;;;;;;;;;;;1.80;99.90;;;;;;5027178;28;19981;-82
2021/12/24 00:20:34;;;;;;;;;;;1.80;99.90;;;;;;5027379;28;19925;-83
2021/12/24 00:23:27;;;;;;;;;;;1.80;99.90;;;;;;5028010;28;19925;-83
2021/12/24 00:36:52;;;;;;;;;;;1.90;99.90;;;;;;5040268;28;19920;-82
2021/12/24 00:39:19;;;;;;;;;;;1.90;99.90;;;;;;5024258;28;20352;-83
2021/12/24 00:41:45;;;;;;;;;;;1.90;99.90;;;;;;5023455;28;19933;-83
2021/12/24 00:44:12;;;;;;;;;;;1.90;99.90;;;;;;5023154;28;19925;-83
2021/12/24 00:46:39;;;;;;;;;;;1.90;99.90;;;;;;5023133;28;19976;-84
2021/12/24 00:49:06;;;;;;;;;;;2.00;99.90;;;;;;5029660;28;19913;-83
2021/12/24 00:51:54;;;;;;;;;;;1.90;99.90;;;;;;5039976;28;19909;-83
2021/12/24 00:57:03;;;;;;;;;;;2.00;99.90;;;;;;5027596;28;20391;-84
2021/12/24 00:59:30;;;;;;;;;;;2.00;99.90;;;;;;5027273;28;19932;-84
2021/12/24 01:02:03;;;;;;;;;;;2.00;99.90;;;;;;5026837;28;19948;-84
2021/12/24 01:04:29;;;;;;;;;;;2.00;99.90;;;;;;5028192;28;19930;-84
2021/12/24 01:06:56;;;;;;;;;;;2.00;99.90;;;;;;5026479;28;19973;-84
2021/12/24 01:09:22;;;;;;;;;;;2.10;99.90;;;;;;5025281;28;19969;-84
2021/12/24 01:11:49;;;;;;;;;;;2.10;99.90;;;;;;5027110;28;19933;-84
2021/12/24 01:14:15;;;;;;;;;;;2.10;99.90;;;;;;5027985;28;19925;-84
2021/12/24 01:16:49;;;;;;;;;;;2.20;99.90;;;;;;5027619;28;19925;-84
2021/12/24 01:19:21;;;;;;;;;;;2.10;99.90;;;;;;5027757;28;19925;-84
2021/12/24 01:22:10;;;;;;;;;;;2.20;99.90;;;;;;5027296;28;19925;-84
2021/12/24 01:24:44;;;;;;;;;;;2.20;99.90;;;;;;5028272;28;19936;-84
2021/12/24 01:27:20;;;;;;;;;;;2.20;99.90;;;;;;5028221;28;19952;-83
2021/12/24 01:29:57;;;;;;;;;;;2.20;99.90;;;;;;5027632;28;19932;-84
2021/12/24 01:37:58;;;;;;;;;;;2.30;99.90;;;;;;5038117;28;19932;-85
2021/12/24 01:40:37;;;;;;;;;;;2.30;99.90;;;;;;5035563;28;19931;-83
2021/12/24 01:43:03;;;;;;;;;;;2.30;99.90;;;;;;5033345;28;20060;-83
2021/12/24 01:45:31;;;;;;;;;;;2.30;99.90;;;;;;5030941;28;19922;-84
2021/12/24 01:47:58;;;;;;;;;;;2.40;99.90;;;;;;5027127;28;19932;-85
2021/12/24 01:50:28;;;;;;;;;;;2.40;99.90;;;;;;5027344;28;19925;-84
2021/12/24 01:52:55;;;;;;;;;;;2.40;99.90;;;;;;5025174;28;19925;-84
2021/12/24 01:55:22;;;;;;;;;;;2.40;99.90;;;;;;5027420;28;19933;-84
2021/12/24 01:57:49;;;;;;;;;;;2.40;99.90;;;;;;5025707;28;19932;-84
2021/12/24 02:00:16;;;;;;;;;;;2.50;99.90;;;;;;5021930;28;19925;-84
2021/12/24 02:02:43;;;;;;;;;;;2.40;99.90;;;;;;5022113;28;19949;-84
2021/12/24 02:05:10;;;;;;;;;;;2.50;99.90;;;;;;5023082;28;20392;-84
2021/12/24 02:07:38;;;;;;;;;;;2.50;99.90;;;;;;5024416;28;20292;-84
2021/12/24 02:10:05;;;;;;;;;;;2.50;99.90;;;;;;5024240;28;20063;-84
2021/12/24 02:12:34;;;;;;;;;;;2.50;99.90;;;;;;5023505;28;19971;-84
2021/12/24 02:15:01;;;;;;;;;;;2.50;99.90;;;;;;5022288;28;19925;-84
2021/12/24 02:17:55;;;;;;;;;;;2.60;99.90;;;;;;5035236;28;19929;-84
2021/12/24 02:28:38;;;;;;;;;;;2.60;99.90;;;;;;5018905;28;19928;-85
2021/12/24 02:31:06;;;;;;;;;;;2.60;99.90;;;;;;5022369;28;19925;-83
2021/12/24 02:33:32;;;;;;;;;;;2.60;99.90;;;;;;5027696;28;19925;-83
2021/12/24 02:36:00;;;;;;;;;;;2.60;99.90;;;;;;5029876;28;19925;-83
2021/12/24 02:38:27;;;;;;;;;;;2.60;99.90;;;;;;5026855;28;19933;-83
2021/12/24 02:40:53;;;;;;;;;;;2.60;99.90;;;;;;5028153;28;19913;-84
2021/12/24 02:43:22;;;;;;;;;;;2.50;99.90;;;;;;5028178;28;20308;-83
2021/12/24 02:45:51;;;;;;;;;;;2.50;99.90;;;;;;5023400;28;19925;-85
2021/12/24 02:53:57;;;;;;;;;;;2.60;99.90;;;;;;5023564;28;20407;-84
2021/12/24 02:56:27;;;;;;;;;;;2.60;99.90;;;;;;5025798;28;20001;-83
2021/12/24 02:58:53;;;;;;;;;;;2.60;99.90;;;;;;5038044;28;19910;-83
2021/12/24 03:01:21;;;;;;;;;;;2.50;99.90;;;;;;5035743;28;20344;-85
2021/12/24 03:03:48;;;;;;;;;;;2.60;99.90;;;;;;5020213;28;19925;-85
2021/12/24 03:06:17;;;;;;;;;;;2.50;99.90;;;;;;5031618;28;19916;-83
2021/12/24 03:08:43;;;;;;;;;;;2.60;99.90;;;;;;5042023;28;19925;-84
2021/12/24 03:11:10;;;;;;;;;;;2.60;99.90;;;;;;5041941;28;19909;-84
2021/12/24 03:13:37;;;;;;;;;;;2.60;99.90;;;;;;5035887;28;19933;-83
2021/12/24 03:16:03;;;;;;;;;;;2.70;99.90;;;;;;5030274;28;19937;-83
2021/12/24 03:18:33;;;;;;;;;;;2.70;99.90;;;;;;5031828;28;19925;-83
2021/12/24 03:21:05;;;;;;;;;;;2.70;99.90;;;;;;5032657;28;19995;-83
2021/12/24 03:23:37;;;;;;;;;;;2.70;99.90;;;;;;5036746;28;19925;-82
2021/12/24 03:26:04;;;;;;;;;;;2.70;99.90;;;;;;5036636;28;19930;-83
2021/12/24 03:28:31;;;;;;;;;;;2.70;99.90;;;;;;5027866;28;19968;-83
2021/12/24 03:30:57;;;;;;;;;;;2.70;99.90;;;;;;5021741;28;20001;-84
2021/12/24 03:33:24;;;;;;;;;;;2.80;99.90;;;;;;5019670;28;20420;-83
2021/12/24 03:35:50;;;;;;;;;;;2.80;99.90;;;;;;5022571;28;20281;-83
2021/12/24 03:38:17;;;;;;;;;;;2.80;99.90;;;;;;5026122;28;20291;-83
2021/12/24 03:40:45;;;;;;;;;;;2.80;99.90;;;;;;5027074;28;19941;-84
2021/12/24 03:43:11;;;;;;;;;;;2.90;99.90;;;;;;5029800;28;19925;-83
2021/12/24 03:45:44;;;;;;;;;;;2.90;99.90;;;;;;5029293;28;19933;-83
2021/12/24 03:48:18;;;;;;;;;;;2.90;99.90;;;;;;5024978;28;19926;-83
2021/12/24 03:50:51;;;;;;;;;;;3.00;99.90;;;;;;5019562;28;19930;-83
2021/12/24 03:56:03;;;;;;;;;;;3.00;99.90;;;;;;5025009;28;19932;-83
2021/12/24 03:58:30;;;;;;;;;;;3.10;99.90;;;;;;5026525;28;19941;-83
2021/12/24 04:00:56;;;;;;;;;;;3.10;99.90;;;;;;5027135;28;19932;-83
2021/12/24 04:03:23;;;;;;;;;;;3.20;99.90;;;;;;5030418;28;19949;-84
2021/12/24 04:05:49;;;;;;;;;;;3.20;99.90;;;;;;5030766;28;19926;-83
2021/12/24 04:08:16;;;;;;;;;;;3.20;99.90;;;;;;5030558;28;19933;-83
2021/12/24 04:10:43;;;;;;;;;;;3.20;99.90;;;;;;5030326;28;19949;-83
2021/12/24 04:13:12;;;;;;;;;;;3.20;99.90;;;;;;5029211;28;19926;-84
2021/12/24 04:15:39;;;;;;;;;;;3.30;99.90;;;;;;5030026;28;19932;-84
2021/12/24 04:18:12;;;;;;;;;;;3.30;99.90;;;;;;5028938;28;19925;-84
2021/12/24 04:26:07;;;;;;;;;;;3.40;99.90;;;;;;5032855;28;19964;-84
2021/12/24 04:28:35;;;;;;;;;;;3.50;99.90;;;;;;5031223;28;19933;-84
2021/12/24 04:31:02;;;;;;;;;;;3.50;99.90;;;;;;5028464;28;19933;-84
2021/12/24 04:33:32;;;;;;;;;;;3.60;99.90;;;;;;5027253;28;20073;-84
2021/12/24 04:36:09;;;;;;;;;;;3.60;99.90;;;;;;5027781;28;19933;-83
2021/12/24 04:38:56;;;;;;;;;;;3.60;99.90;;;;;;5028250;28;19926;-84
2021/12/24 04:52:42;;;;;;;;;;;3.70;99.90;;;;;;5026782;28;19972;-84
2021/12/24 05:03:29;;;;;;;;;;;3.80;99.90;;;;;;5027851;28;19975;-84
2021/12/24 05:06:07;;;;;;;;;;;3.80;99.90;;;;;;5027175;28;19926;-84
2021/12/24 05:08:41;;;;;;;;;;;3.80;99.90;;;;;;5026830;28;19929;-84
2021/12/24 05:11:10;;;;;;;;;;;3.80;99.90;;;;;;5027784;28;19932;-84
2021/12/24 05:13:38;;;;;;;;;;;3.90;99.90;;;;;;5026419;28;19981;-84
2021/12/24 05:16:11;;;;;;;;;;;3.90;99.90;;;;;;5025901;28;19975;-84
2021/12/24 05:19:02;;;;;;;;;;;3.90;99.90;;;;;;5025121;28;20005;-84
2021/12/24 05:21:33;;;;;;;;;;;3.90;99.90;;;;;;5035068;28;19964;-85
2021/12/24 05:23:59;;;;;;;;;;;4.00;99.90;;;;;;5038247;28;19925;-84
2021/12/24 05:26:26;;;;;;;;;;;4.00;99.90;;;;;;5037669;28;19913;-83
2021/12/24 05:28:52;;;;;;;;;;;4.10;99.90;;;;;;5038281;28;19936;-83
2021/12/24 05:31:21;;;;;;;;;;;4.00;99.90;;;;;;5037221;28;19926;-84
2021/12/24 05:33:47;;;;;;;;;;;4.10;99.90;;;;;;5032932;28;19925;-84
2021/12/24 05:36:14;;;;;;;;;;;4.10;99.90;;;;;;5026527;28;19926;-84
2021/12/24 05:38:40;;;;;;;;;;;4.10;99.90;;;;;;5027179;28;19961;-84
2021/12/24 06:08:55;;;;;;;;;;;2.80;99.90;;;;;;5014710;23;19932;-83
2021/12/24 06:11:21;;;;;;;;;;;4.40;99.90;;;;;;5019571;28;20308;-83
2021/12/24 06:13:52;;;;;;;;;;;4.50;99.90;;;;;;5020116;28;20343;-83
2021/12/24 06:16:19;;;;;;;;;;;4.50;99.90;;;;;;5022953;28;19933;-82
2021/12/24 06:18:45;;;;;;;;;;;4.50;99.90;;;;;;5025014;28;19996;-83
2021/12/24 06:21:12;;;;;;;;;;;4.60;99.90;;;;;;5026348;28;19925;-83
2021/12/24 06:23:39;;;;;;;;;;;4.60;99.90;;;;;;5028636;28;19967;-83
2021/12/24 06:26:07;;;;;;;;;;;4.60;99.90;;;;;;5029524;28;19925;-83
2021/12/24 06:28:34;;;;;;;;;;;4.60;99.90;;;;;;5027480;28;19929;-83
2021/12/24 06:31:01;;;;;;;;;;;4.60;99.90;;;;;;5027834;28;19936;-83
2021/12/24 06:33:27;;;;;;;;;;;4.70;99.90;;;;;;5027346;28;19926;-84
2021/12/24 06:35:56;;;;;;;;;;;4.60;99.90;;;;;;5027084;28;20466;-83
2021/12/24 06:38:22;;;;;;;;;;;4.60;99.90;;;;;;5028390;28;19925;-84
2021/12/24 06:40:49;;;;;;;;;;;4.70;99.90;;;;;;5035083;28;19932;-83
2021/12/24 06:43:17;;;;;;;;;;;4.70;99.90;;;;;;5036475;28;19926;-84
2021/12/24 06:45:46;;;;;;;;;;;4.70;99.90;;;;;;5033882;28;19926;-84
2021/12/24 06:48:13;;;;;;;;;;;4.80;99.90;;;;;;5033569;28;20301;-84
2021/12/24 06:50:39;;;;;;;;;;;4.80;99.90;;;;;;5036469;28;19980;-84
2021/12/24 06:53:06;;;;;;;;;;;4.80;99.90;;;;;;5037911;28;19925;-84
2021/12/24 06:55:32;;;;;;;;;;;4.80;99.90;;;;;;5036903;28;19936;-84
2021/12/24 06:57:59;;;;;;;;;;;4.80;99.90;;;;;;5035014;28;19926;-84
2021/12/24 07:00:27;;;;;;;;;;;4.90;99.90;;;;;;5031898;28;19929;-84
2021/12/24 07:02:53;;;;;;;;;;;4.90;99.90;;;;;;5026994;28;19933;-84
2021/12/24 07:05:20;;;;;;;;;;;4.90;99.90;;;;;;5024342;28;19925;-84
2021/12/24 07:07:46;;;;;;;;;;;4.90;99.90;;;;;;5029141;28;19925;-85
2021/12/24 07:10:13;;;;;;;;;;;4.90;99.90;;;;;;5032587;28;19925;-85
2021/12/24 07:12:39;;;;;;;;;;;4.90;99.90;;;;;;5033161;28;19925;-85
2021/12/24 07:15:07;;;;;;;;;;;5.00;99.90;;;;;;5031885;28;20303;-84
2021/12/24 07:17:35;;;;;;;;;;;5.00;99.90;;;;;;5032076;28;19926;-84
2021/12/24 07:20:01;;;;;;;;;;;5.00;99.90;;;;;;5031436;28;19926;-84
2021/12/24 07:22:28;;;;;;;;;;;5.00;99.90;;;;;;5032464;28;19979;-84
2021/12/24 07:24:54;;;;;;;;;;;5.00;99.90;;;;;;5036986;28;19933;-84
2021/12/24 07:27:21;;;;;;;;;;;5.00;99.90;;;;;;5034141;28;19925;-84
2021/12/24 07:29:47;;;;;;;;;;;5.00;99.90;;;;;;5031725;28;19932;-84
2021/12/24 07:32:14;;;;;;;;;;;5.10;99.90;;;;;;5031558;28;19933;-84
2021/12/24 07:34:41;;;;;;;;;;;5.10;99.90;;;;;;5033214;28;19932;-84
2021/12/24 07:37:08;;;;;;;;;;;5.10;99.90;;;;;;5041468;28;19914;-84
2021/12/24 07:39:34;;;;;;;;;;;5.10;99.90;;;;;;5041557;28;19920;-84
2021/12/24 07:42:01;;;;;;;;;;;5.10;99.90;;;;;;5041231;28;19910;-83
2021/12/24 07:44:29;;;;;;;;;;;5.20;99.90;;;;;;5040870;28;19916;-84
2021/12/24 07:46:59;;;;;;;;;;;5.20;99.90;;;;;;5037103;28;19952;-83
2021/12/24 07:49:38;;;;;;;;;;;5.20;99.90;;;;;;5036937;28;19918;-83
2021/12/24 07:52:09;;;;;;;;;;;5.20;99.90;;;;;;5031449;28;19936;-83
2021/12/24 07:54:37;;;;;;;;;;;5.20;99.90;;;;;;5027989;28;19929;-83
2021/12/24 07:57:04;;;;;;;;;;;5.10;99.90;;;;;;5032416;28;19926;-83
2021/12/24 07:59:31;;;;;;;;;;;5.20;99.90;;;;;;5036152;28;19925;-84
2021/12/24 08:01:57;;;;;;;;;;;5.20;99.90;;;;;;5036406;28;19925;-83
2021/12/24 08:04:24;;;;;;;;;;;5.20;99.90;;;;;;5034891;28;19926;-84
2021/12/24 08:06:50;;;;;;;;;;;5.20;99.90;;;;;;5035473;28;19926;-84
2021/12/24 08:09:18;;;;;;;;;;;5.30;99.90;;;;;;5035503;28;19948;-83
2021/12/24 08:11:45;;;;;;;;;;;5.30;99.90;;;;;;5034372;28;19926;-83
2021/12/24 08:14:11;;;;;;;;;;;5.40;99.90;;;;;;5032183;28;19925;-83
2021/12/24 08:16:37;;;;;;;;;;;5.40;99.90;;;;;;5035650;28;19925;-83
2021/12/24 08:19:04;;;;;;;;;;;5.40;99.90;;;;;;5033258;28;19926;-83
2021/12/24 08:21:30;;;;;;;;;;;5.50;99.90;;;;;;5036278;28;19913;-83
2021/12/24 08:23:57;;;;;;;;;;;5.40;99.90;;;;;;5039388;28;19945;-83
2021/12/24 08:26:25;;;;;;;;;;;5.50;99.90;;;;;;5030363;28;20460;-83
2021/12/24 08:28:53;;;;;;;;;;;5.50;99.90;;;;;;5031582;28;19926;-83
2021/12/24 08:31:19;;;;;;;;;;;5.50;99.90;;;;;;5030631;28;19926;-84
2021/12/24 08:33:46;;;;;;;;;;;5.50;99.90;;;;;;5028038;28;19926;-84
2021/12/24 08:36:12;;;;;;;;;;;5.50;99.90;;;;;;5028253;28;19932;-84
2021/12/24 08:38:39;;;;;;;;;;;5.50;99.90;;;;;;5026291;28;19930;-84
2021/12/24 08:41:06;;;;;;;;;;;5.60;99.90;;;;;;5028214;28;19933;-84
2021/12/24 08:43:34;;;;;;;;;;;5.50;99.90;;;;;;5027905;28;20276;-84
2021/12/24 08:46:01;;;;;;;;;;;5.60;99.90;;;;;;5027385;28;19926;-85
2021/12/24 08:48:29;;;;;;;;;;;5.60;99.90;;;;;;5026345;28;19926;-85
2021/12/24 08:50:55;;;;;;;;;;;5.60;99.90;;;;;;5026572;28;20430;-85
2021/12/24 08:53:23;;;;;;;;;;;5.60;99.90;;;;;;5020104;28;19937;-85
2021/12/24 08:55:49;;;;;;;;;;;5.70;99.90;;;;;;5020206;28;19930;-85
2021/12/24 08:58:16;;;;;;;;;;;5.60;99.90;;;;;;5021382;28;19930;-83
2021/12/24 09:00:44;;;;;;;;;;;5.70;99.90;;;;;;5024503;28;19925;-84
2021/12/24 09:03:11;;;;;;;;;;;5.70;99.90;;;;;;5022076;28;20376;-84
2021/12/24 09:05:38;;;;;;;;;;;5.70;99.90;;;;;;5023361;28;20395;-84
2021/12/24 09:08:05;;;;;;;;;;;5.70;99.90;;;;;;5023812;28;19926;-84
2021/12/24 09:10:31;;;;;;;;;;;5.70;99.90;;;;;;5025667;28;19932;-84
2021/12/24 09:12:58;;;;;;;;;;;5.70;99.90;;;;;;5027714;28;19932;-84
2021/12/24 09:15:29;;;;;;;;;;;5.90;99.90;;;;;;5029686;28;19937;-83
2021/12/24 09:17:57;;;;;;;;;;;5.70;99.90;;;;;;5032318;28;20008;-85
2021/12/24 09:20:29;;;;;;;;;;;5.80;99.90;;;;;;5033122;28;20430;-84
2021/12/24 09:22:55;;;;;;;;;;;5.70;99.90;;;;;;5033373;28;19952;-84
2021/12/24 09:25:23;;;;;;;;;;;5.70;99.90;;;;;;5029730;28;19925;-85
2021/12/24 09:27:50;;;;;;;;;;;5.40;99.90;;;;;;5025905;28;19926;-84
2021/12/24 09:30:17;;;;;;;;;;;5.80;99.90;;;;;;5026095;28;19929;-85
2021/12/24 09:32:44;;;;;;;;;;;5.70;99.90;;;;;;5026439;28;19932;-84
2021/12/24 09:35:12;;;;;;;;;;;5.80;99.90;;;;;;5027824;28;19929;-84
2021/12/24 09:37:39;;;;;;;;;;;5.70;99.90;;;;;;5026894;28;19932;-85
2021/12/24 09:40:06;;;;;;;;;;;5.70;99.90;;;;;;5027493;28;20348;-84
2021/12/24 09:42:34;;;;;;;;;;;5.70;99.90;;;;;;5025365;28;19988;-84
2021/12/24 09:45:00;;;;;;;;;;;5.70;99.90;;;;;;5026176;28;20013;-84
2021/12/24 09:47:27;;;;;;;;;;;5.70;99.90;;;;;;5020865;28;19929;-82
2021/12/24 09:49:53;;;;;;;;;;;5.50;99.90;;;;;;5016292;28;20455;-82
2021/12/24 09:52:23;;;;;;;;;;;5.60;99.90;;;;;;5018347;28;19964;-82
2021/12/24 09:54:50;;;;;;;;;;;5.60;99.90;;;;;;5017534;28;20281;-81
2021/12/24 09:57:17;;;;;;;;;;;5.70;99.90;;;;;;5017453;28;19932;-82
2021/12/24 09:59:43;;;;;;;;;;;5.70;99.90;;;;;;5017872;28;19929;-80
2021/12/24 10:02:15;;;;;;;;;;;5.70;99.90;;;;;;5018323;28;20335;-83
2021/12/24 10:04:43;;;;;;;;;;;5.70;99.90;;;;;;5026642;28;19926;-81
2021/12/24 10:07:11;;;;;;;;;;;5.70;99.90;;;;;;5030784;28;19972;-81
2021/12/24 10:09:39;;;;;;;;;;;5.60;99.90;;;;;;5032068;28;19929;-82
2021/12/24 10:12:07;;;;;;;;;;;5.70;99.90;;;;;;5038702;28;19949;-82
2021/12/24 10:14:35;;;;;;;;;;;5.70;99.90;;;;;;5030829;28;19926;-82
2021/12/24 10:17:01;;;;;;;;;;;5.50;99.90;;;;;;5027644;28;19926;-82
2021/12/24 10:19:28;;;;;;;;;;;5.70;99.90;;;;;;5026817;28;19933;-83
2021/12/24 10:21:59;;;;;;;;;;;5.70;99.90;;;;;;5025913;28;19972;-83
2021/12/24 10:24:26;;;;;;;;;;;5.70;99.90;;;;;;5026078;28;19929;-83
2021/12/24 10:26:56;;;;;;;;;;;5.70;99.90;;;;;;5026562;28;19953;-83
2021/12/24 10:29:29;;;;;;;;;;;5.70;99.90;;;;;;5028497;28;19926;-82
2021/12/24 10:31:57;;;;;;;;;;;5.70;99.90;;;;;;5038158;28;19952;-82
2021/12/24 10:34:27;;;;;;;;;;;5.60;99.90;;;;;;5038066;28;20009;-83
2021/12/24 10:37:00;;;;;;;;;;;5.60;99.90;;;;;;5037811;28;19969;-81
2021/12/24 10:39:27;;;;;;;;;;;5.60;99.90;;;;;;5037171;28;19953;-83
2021/12/24 10:41:55;;;;;;;;;;;5.50;99.90;;;;;;5032869;28;19932;-83
2021/12/24 10:44:24;;;;;;;;;;;5.60;99.90;;;;;;5030545;28;19925;-82
2021/12/24 10:47:01;;;;;;;;;;;5.70;99.90;;;;;;5029761;28;19925;-83
2021/12/24 10:49:52;;;;;;;;;;;5.70;99.90;;;;;;5029776;28;20360;-83
2021/12/24 10:52:32;;;;;;;;;;;5.70;99.90;;;;;;5030017;28;19926;-83
2021/12/24 10:54:59;;;;;;;;;;;5.60;99.90;;;;;;5030668;28;19945;-83
2021/12/24 10:57:31;;;;;;;;;;;5.60;99.90;;;;;;5030043;28;19945;-83
2021/12/24 10:59:59;;;;;;;;;;;5.50;99.90;;;;;;5030807;28;20477;-83
2021/12/24 11:02:28;;;;;;;;;;;5.50;99.90;;;;;;5030970;28;19930;-82
2021/12/24 11:04:55;;;;;;;;;;;5.40;99.90;;;;;;5029388;28;19932;-83
2021/12/24 11:07:31;;;;;;;;;;;5.40;99.90;;;;;;5025895;28;20003;-83
2021/12/24 11:10:12;;;;;;;;;;;5.40;99.90;;;;;;5029077;28;19930;-83
2021/12/24 11:12:42;;;;;;;;;;;5.40;99.90;;;;;;5030714;28;19926;-83
2021/12/24 11:15:33;;;;;;;;;;;5.30;99.90;;;;;;5034979;28;19909;-82
2021/12/24 11:18:00;;;;;;;;;;;5.30;99.90;;;;;;5016955;28;19929;-83
2021/12/24 11:20:28;;;;;;;;;;;5.30;99.90;;;;;;5029396;28;20009;-83
2021/12/24 11:23:01;;;;;;;;;;;5.20;99.90;;;;;;5030870;28;19933;-84
2021/12/24 11:25:30;;;;;;;;;;;4.70;99.90;;;;;;5029726;28;19936;-83
2021/12/24 11:27:58;;;;;;;;;;;5.30;99.90;;;;;;5031623;28;19925;-83
2021/12/24 11:30:25;;;;;;;;;;;4.50;99.90;;;;;;5030974;28;19936;-83
2021/12/24 11:32:51;;;;;;;;;;;5.30;99.90;;;;;;5029847;28;19929;-83
2021/12/24 11:35:18;;;;;;;;;;;5.20;99.90;;;;;;5025376;28;19929;-83
2021/12/24 11:37:45;;;;;;;;;;;5.20;99.90;;;;;;5028048;28;19936;-83
2021/12/24 11:40:14;;;;;;;;;;;5.10;99.90;;;;;;5029034;28;19925;-83
2021/12/24 11:42:42;;;;;;;;;;;4.90;99.90;;;;;;5029979;28;19936;-84
2021/12/24 11:45:10;;;;;;;;;;;5.00;99.90;;;;;;5029737;28;19930;-82
2021/12/24 11:47:37;;;;;;;;;;;4.90;99.90;;;;;;5030003;28;19932;-83
2021/12/24 11:50:04;;;;;;;;;;;5.00;99.90;;;;;;5031030;28;19952;-83
2021/12/24 11:52:31;;;;;;;;;;;5.00;99.90;;;;;;5034022;28;19910;-82
2021/12/24 11:55:00;;;;;;;;;;;4.90;99.90;;;;;;5038642;28;19920;-83
2021/12/24 11:57:27;;;;;;;;;;;4.40;99.90;;;;;;5040552;28;19929;-83
2021/12/24 11:59:53;;;;;;;;;;;4.80;99.90;;;;;;5037810;28;20307;-82
2021/12/24 12:02:40;;;;;;;;;;;5.70;99.90;;;;;;5038148;28;19929;-83
2021/12/24 12:05:11;;;;;;;;;;;4.70;99.90;;;;;;5038632;28;19956;-83
2021/12/24 12:07:38;;;;;;;;;;;4.80;99.90;;;;;;5033631;28;19997;-83
2021/12/24 12:10:05;;;;;;;;;;;4.70;99.90;;;;;;5032922;28;19984;-83
2021/12/24 12:12:32;;;;;;;;;;;4.50;99.90;;;;;;5031756;28;19925;-83
2021/12/24 12:15:13;;;;;;;;;;;4.20;99.90;;;;;;5032078;28;19929;-83
2021/12/24 12:17:50;;;;;;;;;;;4.20;99.90;;;;;;5030475;28;20350;-84
2021/12/24 12:20:40;;;;;;;;;;;4.20;99.90;;;;;;5034069;28;20011;-83
2021/12/24 12:23:13;;;;;;;;;;;4.10;99.90;;;;;;5038816;28;19937;-82
2021/12/24 12:25:40;;;;;;;;;;;4.20;99.90;;;;;;5035295;28;20443;-82
2021/12/24 12:28:12;;;;;;;;;;;4.10;99.90;;;;;;5031610;28;19925;-82
2021/12/24 12:30:42;;;;;;;;;;;3.80;99.90;;;;;;5030409;28;19926;-83
2021/12/24 12:33:11;;;;;;;;;;;3.80;99.90;;;;;;5017156;28;19929;-83
2021/12/24 12:35:39;;;;;;;;;;;4.00;99.90;;;;;;5029909;28;19976;-83
2021/12/24 12:38:20;;;;;;;;;;;3.70;99.90;;;;;;5027252;28;19933;-83
2021/12/24 12:40:47;;;;;;;;;;;3.70;99.90;;;;;;5027116;28;19925;-81
2021/12/24 12:43:14;;;;;;;;;;;3.70;99.90;;;;;;5026702;28;19933;-84
2021/12/24 12:45:53;;;;;;;;;;;3.50;99.90;;;;;;5026000;28;20000;-82
2021/12/24 12:48:25;;;;;;;;;;;3.50;99.90;;;;;;5028379;28;19926;-82
2021/12/24 12:50:53;;;;;;;;;;;3.50;99.90;;;;;;5028628;28;19925;-82
2021/12/24 12:53:26;;;;;;;;;;;3.50;99.90;;;;;;5028491;28;19925;-82
2021/12/24 12:56:07;;;;;;;;;;;3.50;99.90;;;;;;5027739;28;19925;-82
2021/12/24 12:58:34;;;;;;;;;;;3.40;99.90;;;;;;5027484;28;19926;-83
2021/12/24 13:01:04;;;;;;;;;;;3.30;99.90;;;;;;5027700;28;19925;-83
2021/12/24 13:03:32;;;;;;;;;;;3.20;99.90;;;;;;5027787;28;19980;-83
2021/12/24 13:06:05;;;;;;;;;;;3.10;99.90;;;;;;5027771;28;19929;-83
2021/12/24 13:08:32;;;;;;;;;;;3.00;99.90;;;;;;5030611;28;19977;-83
2021/12/24 13:11:00;;;;;;;;;;;2.90;99.90;;;;;;5030714;28;19935;-83
2021/12/24 13:13:28;;;;;;;;;;;3.10;99.90;;;;;;5029116;28;20020;-83
2021/12/24 13:15:55;;;;;;;;;;;2.90;99.90;;;;;;5030452;28;19926;-83
2021/12/24 13:18:27;;;;;;;;;;;2.90;99.90;;;;;;5031942;28;19933;-83
2021/12/24 13:23:42;;;;;;;;;;;2.60;99.90;;;;;;5037281;28;19932;-82
2021/12/24 13:26:10;;;;;;;;;;;2.70;99.90;;;;;;5037852;28;19930;-82
2021/12/24 13:28:51;;;;;;;;;;;2.60;99.90;;;;;;5038842;28;19932;-82
2021/12/24 13:31:18;;;;;;;;;;;2.60;99.90;;;;;;5038714;28;19920;-82
2021/12/24 13:33:46;;;;;;;;;;;2.70;99.90;;;;;;5038388;28;20027;-80
2021/12/24 13:36:14;;;;;;;;;;;2.60;99.90;;;;;;5038256;28;19926;-80
2021/12/24 13:38:41;;;;;;;;;;;2.50;99.90;;;;;;5038912;28;19937;-80
2021/12/24 13:41:07;;;;;;;;;;;2.50;99.90;;;;;;5037113;28;19925;-83
2021/12/24 13:43:36;;;;;;;;;;;2.40;99.90;;;;;;5033044;28;19925;-82
2021/12/24 13:46:05;;;;;;;;;;;2.30;99.90;;;;;;5032443;28;19926;-83
2021/12/24 13:48:45;;;;;;;;;;;2.40;99.90;;;;;;5029134;28;20385;-82
2021/12/24 13:56:42;;;;;;;;;;;2.30;99.90;;;;;;5029339;28;19933;-82
2021/12/24 13:59:09;;;;;;;;;;;2.20;99.90;;;;;;5029381;28;19932;-83
2021/12/24 14:01:36;;;;;;;;;;;2.20;99.90;;;;;;5029380;28;19925;-82
2021/12/24 14:04:03;;;;;;;;;;;2.10;99.90;;;;;;5030410;28;19932;-82
2021/12/24 14:06:32;;;;;;;;;;;2.10;99.90;;;;;;5030643;28;19937;-82
2021/12/24 14:09:09;;;;;;;;;;;2.00;99.90;;;;;;5026710;28;22142;-83
2021/12/24 14:11:37;;;;;;;;;;;2.10;99.90;;;;;;5017683;28;19932;-82
2021/12/24 14:14:08;;;;;;;;;;;2.10;99.90;;;;;;5019897;28;19976;-82
2021/12/24 14:16:42;;;;;;;;;;;2.10;99.90;;;;;;5021864;28;19989;-82
2021/12/24 14:19:12;;;;;;;;;;;2.00;99.90;;;;;;5028301;28;19925;-82
2021/12/24 14:21:45;;;;;;;;;;;2.00;99.90;;;;;;5029119;28;19961;-82
2021/12/24 14:24:14;;;;;;;;;;;1.90;99.90;;;;;;5033985;28;19926;-82
2021/12/24 14:26:41;;;;;;;;;;;1.90;99.90;;;;;;5034684;28;19936;-82
2021/12/24 14:29:08;;;;;;;;;;;2.00;99.90;;;;;;5030461;28;19980;-82
2021/12/24 14:31:47;;;;;;;;;;;2.00;99.90;;;;;;5033748;28;19925;-83
2021/12/24 14:34:13;;;;;;;;;;;2.00;99.90;;;;;;5035879;28;19932;-82
2021/12/24 14:36:55;;;;;;;;;;;1.90;99.90;;;;;;5036580;28;19929;-83
2021/12/24 14:39:23;;;;;;;;;;;1.90;99.90;;;;;;5035612;28;19926;-83
2021/12/24 14:42:05;;;;;;;;;;;1.90;99.90;;;;;;5029896;28;19929;-84
2021/12/24 14:44:31;;;;;;;;;;;1.90;99.90;;;;;;5029201;28;19930;-83
2021/12/24 14:46:58;;;;;;;;;;;1.90;99.90;;;;;;5028444;28;19925;-82
2021/12/24 14:49:31;;;;;;;;;;;1.90;99.90;;;;;;5028784;28;19949;-83
2021/12/24 14:52:12;;;;;;;;;;;1.90;99.90;;;;;;5027948;28;20320;-84
2021/12/24 14:55:05;;;;;;;;;;;1.70;99.90;;;;;;5031008;28;19937;-82
2021/12/24 14:57:32;;;;;;;;;;;1.80;99.90;;;;;;5030008;28;19925;-80
2021/12/24 15:00:05;;;;;;;;;;;1.90;99.90;;;;;;5029234;28;19926;-82
2021/12/24 15:02:31;;;;;;;;;;;2.00;99.90;;;;;;5031537;28;19926;-82
2021/12/24 15:04:58;;;;;;;;;;;1.80;99.90;;;;;;5031821;28;19933;-82
2021/12/24 15:07:30;;;;;;;;;;;2.20;99.90;;;;;;5033429;28;19933;-83
2021/12/24 15:10:09;;;;;;;;;;;1.80;99.90;;;;;;5032777;28;19975;-82
2021/12/24 15:12:40;;;;;;;;;;;1.70;99.90;;;;;;5031098;28;19926;-81
2021/12/24 15:15:07;;;;;;;;;;;1.70;99.90;;;;;;5031746;28;19926;-82
2021/12/24 15:17:37;;;;;;;;;;;1.70;99.90;;;;;;5028005;28;19926;-81
2021/12/24 15:20:04;;;;;;;;;;;1.60;99.90;;;;;;5027723;28;19925;-81
2021/12/24 15:22:30;;;;;;;;;;;1.60;99.90;;;;;;5025341;28;19926;-82
2021/12/24 15:24:57;;;;;;;;;;;1.60;99.90;;;;;;5028730;28;19926;-82
2021/12/24 15:27:31;;;;;;;;;;;1.60;99.90;;;;;;5028630;28;19925;-82
2021/12/24 15:29:58;;;;;;;;;;;1.70;99.90;;;;;;5029709;28;20016;-82
2021/12/24 15:32:24;;;;;;;;;;;1.70;99.90;;;;;;5031279;28;19929;-82
2021/12/24 15:34:51;;;;;;;;;;;1.70;99.90;;;;;;5031373;28;19925;-82
2021/12/24 15:37:17;;;;;;;;;;;1.80;99.90;;;;;;5034113;28;19925;-83
2021/12/24 15:39:43;;;;;;;;;;;1.70;99.90;;;;;;5036139;28;19931;-83
2021/12/24 15:42:10;;;;;;;;;;;1.70;99.90;;;;;;5032646;28;19936;-84
2021/12/24 15:44:42;;;;;;;;;;;1.80;99.90;;;;;;5032215;28;20438;-81
2021/12/24 15:47:09;;;;;;;;;;;1.80;99.90;;;;;;5031088;28;19925;-83
2021/12/24 15:49:36;;;;;;;;;;;1.80;99.90;;;;;;5032046;28;19926;-81
2021/12/24 15:52:02;;;;;;;;;;;1.80;99.90;;;;;;5031027;28;19933;-83
2021/12/24 15:54:29;;;;;;;;;;;1.70;99.90;;;;;;5029797;28;19926;-82
2021/12/24 15:56:55;;;;;;;;;;;1.70;99.90;;;;;;5031149;28;19961;-83
2021/12/24 15:59:22;;;;;;;;;;;1.70;99.90;;;;;;5030557;28;20063;-83
2021/12/24 16:01:50;;;;;;;;;;;1.80;99.90;;;;;;5031276;28;19952;-82
2021/12/24 16:04:17;;;;;;;;;;;1.70;99.90;;;;;;5030389;28;19932;-82
2021/12/24 16:06:43;;;;;;;;;;;1.70;99.90;;;;;;5031467;28;19925;-83
2021/12/24 16:09:10;;;;;;;;;;;1.60;99.90;;;;;;5030478;28;19936;-82
2021/12/24 16:11:36;;;;;;;;;;;1.60;99.90;;;;;;5030970;28;19925;-82
2021/12/24 16:14:03;;;;;;;;;;;1.60;99.90;;;;;;5031886;28;19948;-83
2021/12/24 16:16:29;;;;;;;;;;;1.60;99.90;;;;;;5030640;28;19930;-82
2021/12/24 16:18:57;;;;;;;;;;;1.60;99.90;;;;;;5039738;28;19914;-81